Time;durP1;ratioP1;P1;durP2;ratioP2;P2;SDS_P1;SDS_P2;PMS_P1;PMS_P2;Temp;Humidity;BMP_temperature;BMP_pressure;BME280_temperature;BME280_humidity;BME280_pressure;Samples;Min_cycle;Max_cycle;Signal;HPM_P1;HPM_P2
2020/12/27 00:00:24;;;;;;;11.02;4.68;;;-1.40;99.90;;;;;;4907870;29;20043;-80
2020/12/27 00:02:50;;;;;;;8.23;4.22;;;-1.40;99.90;;;;;;4917202;28;20039;-80
2020/12/27 00:05:16;;;;;;;8.38;4.60;;;-1.40;99.90;;;;;;4920133;28;20055;-83
2020/12/27 00:07:41;;;;;;;8.48;4.32;;;-1.40;99.90;;;;;;4917966;29;20613;-81
2020/12/27 00:10:07;;;;;;;7.97;3.67;;;-1.50;99.90;;;;;;4916987;29;20039;-83
2020/12/27 00:12:34;;;;;;;7.38;3.78;;;-1.50;99.90;;;;;;4946660;28;20039;-83
2020/12/27 00:15:00;;;;;;;7.88;3.80;;;-1.60;99.90;;;;;;4943261;28;20070;-81
2020/12/27 00:17:26;;;;;;;8.93;4.00;;;-1.50;99.90;;;;;;4956255;28;20040;-80
2020/12/27 00:19:51;;;;;;;8.48;4.15;;;-1.60;99.90;;;;;;4914565;29;20050;-82
2020/12/27 00:22:20;;;;;;;6.90;3.92;;;-1.60;99.90;;;;;;4919887;28;20035;-80
2020/12/27 00:24:46;;;;;;;8.65;3.65;;;-1.60;99.90;;;;;;4927696;29;20035;-83
2020/12/27 00:27:13;;;;;;;10.07;4.40;;;-1.60;99.90;;;;;;4934821;29;20028;-80
2020/12/27 00:29:40;;;;;;;8.32;3.97;;;-1.40;99.90;;;;;;4919008;29;20039;-80
2020/12/27 00:32:05;;;;;;;7.57;3.95;;;-1.30;99.90;;;;;;4928488;28;20130;-80
2020/12/27 00:34:31;;;;;;;7.80;4.05;;;-1.30;99.90;;;;;;4989683;23;20465;-79
2020/12/27 00:36:58;;;;;;;9.18;4.18;;;-1.30;99.90;;;;;;4985422;28;20031;-78
2020/12/27 00:39:24;;;;;;;11.65;4.22;;;-1.30;99.90;;;;;;4969746;28;20031;-78
2020/12/27 00:41:50;;;;;;;7.47;3.97;;;-1.30;99.90;;;;;;4970191;28;20031;-78
2020/12/27 00:44:18;;;;;;;8.40;4.07;;;-1.30;99.90;;;;;;4967559;28;20671;-78
2020/12/27 00:46:49;;;;;;;11.18;4.80;;;-1.40;99.90;;;;;;4968558;28;20517;-79
2020/12/27 00:49:19;;;;;;;8.68;3.63;;;-1.40;99.90;;;;;;4960365;28;20509;-79
2020/12/27 00:51:45;;;;;;;9.40;3.88;;;-1.40;99.90;;;;;;4966926;28;20035;-78
2020/12/27 00:54:12;;;;;;;9.80;4.70;;;-1.30;99.90;;;;;;4969505;28;20073;-78
2020/12/27 00:56:38;;;;;;;8.07;4.07;;;-1.40;99.90;;;;;;4957215;28;20769;-78
2020/12/27 00:59:11;;;;;;;8.20;3.60;;;-1.50;99.90;;;;;;4961928;28;20031;-79
2020/12/27 01:01:37;;;;;;;10.85;3.50;;;-1.40;99.90;;;;;;4951082;29;20042;-79
2020/12/27 01:04:25;;;;;;;5.93;3.22;;;-1.40;99.90;;;;;;4954981;28;20054;-78
2020/12/27 01:06:52;;;;;;;7.03;3.97;;;-1.40;99.90;;;;;;4938659;28;20501;-79
2020/12/27 01:09:19;;;;;;;7.45;3.60;;;-1.50;99.90;;;;;;4969894;28;20027;-79
2020/12/27 01:11:46;;;;;;;9.95;3.78;;;-1.50;99.90;;;;;;4968438;28;20121;-78
2020/12/27 01:14:12;;;;;;;5.70;3.38;;;-1.40;99.90;;;;;;4950733;29;20482;-78
2020/12/27 01:16:38;;;;;;;8.27;3.65;;;-1.40;99.90;;;;;;4921267;28;20174;-78
2020/12/27 01:19:04;;;;;;;8.90;3.95;;;-1.40;99.90;;;;;;4958316;28;20146;-79
2020/12/27 01:21:41;;;;;;;7.68;3.67;;;-1.40;99.90;;;;;;4971746;28;20066;-79
2020/12/27 01:24:10;;;;;;;7.25;3.38;;;-1.40;99.90;;;;;;4956285;28;20070;-78
2020/12/27 01:26:40;;;;;;;9.07;3.67;;;-1.40;99.90;;;;;;4971597;28;20035;-79
2020/12/27 01:29:05;;;;;;;7.85;3.47;;;-1.40;99.90;;;;;;4958185;28;20035;-79
2020/12/27 01:31:35;;;;;;;11.27;3.75;;;-1.40;99.90;;;;;;4940018;28;20489;-79
2020/12/27 01:34:07;;;;;;;8.60;3.65;;;-1.50;99.90;;;;;;4965871;28;20063;-78
2020/12/27 01:36:38;;;;;;;7.80;4.10;;;-1.50;99.90;;;;;;4957124;28;20045;-78
2020/12/27 01:39:11;;;;;;;7.38;4.10;;;-1.50;99.90;;;;;;4957817;28;20120;-79
2020/12/27 01:41:37;;;;;;;8.55;3.85;;;-1.50;99.90;;;;;;4957496;28;20037;-79
2020/12/27 01:44:13;;;;;;;8.05;3.90;;;-1.60;99.90;;;;;;4973151;28;20033;-78
2020/12/27 01:46:44;;;;;;;6.65;3.30;;;-1.70;99.90;;;;;;4965082;28;20039;-78
2020/12/27 01:49:16;;;;;;;7.07;3.70;;;-1.70;99.90;;;;;;4951655;28;20043;-78
2020/12/27 01:51:42;;;;;;;8.30;3.83;;;-1.80;99.90;;;;;;4937912;29;20038;-79
2020/12/27 01:54:08;;;;;;;6.93;3.17;;;-1.80;99.90;;;;;;4961919;28;20460;-78
2020/12/27 01:56:55;;;;;;;7.28;3.33;;;-1.80;99.90;;;;;;4973557;28;20133;-79
2020/12/27 01:59:29;;;;;;;7.95;3.72;;;-1.80;99.90;;;;;;4951665;28;20043;-79
2020/12/27 02:02:02;;;;;;;5.38;2.80;;;-1.80;99.90;;;;;;4965147;28;20038;-78
2020/12/27 02:04:46;;;;;;;5.68;3.42;;;-1.90;99.90;;;;;;4968387;28;20065;-79
2020/12/27 02:07:13;;;;;;;6.97;3.33;;;-1.90;99.90;;;;;;4968753;28;20393;-79
2020/12/27 02:10:02;;;;;;;9.27;3.35;;;-1.90;99.90;;;;;;4962154;28;20043;-78
2020/12/27 02:12:31;;;;;;;6.72;2.50;;;-2.00;99.90;;;;;;4970972;28;20034;-79
2020/12/27 02:14:57;;;;;;;6.60;3.78;;;-2.00;99.90;;;;;;4971347;28;20401;-79
2020/12/27 02:17:32;;;;;;;8.90;3.22;;;-2.00;99.90;;;;;;4971666;28;20027;-79
2020/12/27 02:20:11;;;;;;;7.05;3.42;;;-2.00;99.90;;;;;;4972603;28;20088;-79
2020/12/27 02:22:48;;;;;;;7.30;3.03;;;-1.90;99.90;;;;;;4957664;28;20031;-78
2020/12/27 02:25:26;;;;;;;5.57;2.67;;;-1.80;99.90;;;;;;4949507;28;20074;-79
2020/12/27 02:28:02;;;;;;;7.63;3.05;;;-1.80;99.90;;;;;;4956368;28;20117;-79
2020/12/27 02:30:28;;;;;;;4.90;2.92;;;-1.90;99.90;;;;;;4952332;28;20066;-78
2020/12/27 02:32:56;;;;;;;7.18;2.88;;;-1.90;99.90;;;;;;4952351;28;20086;-79
2020/12/27 02:35:22;;;;;;;6.72;3.28;;;-1.90;99.90;;;;;;4949584;28;20118;-79
2020/12/27 02:37:52;;;;;;;4.68;2.83;;;-1.90;99.90;;;;;;4953060;28;20435;-79
2020/12/27 02:40:18;;;;;;;4.65;2.42;;;-1.90;99.90;;;;;;4936860;29;20126;-78
2020/12/27 02:43:03;;;;;;;;;;;-1.90;99.90;;;;;;4953633;28;20039;-78
2020/12/27 02:45:31;;;;;;;6.65;2.90;;;-2.00;99.90;;;;;;4940519;28;20001;-79
2020/12/27 02:48:20;;;;;;;5.40;2.67;;;-2.00;99.90;;;;;;4967847;28;20042;-78
2020/12/27 02:50:52;;;;;;;4.60;2.60;;;-1.90;99.90;;;;;;4954427;28;20126;-79
2020/12/27 02:53:17;;;;;;;5.60;2.75;;;-2.00;99.90;;;;;;4937124;28;20775;-78
2020/12/27 02:55:43;;;;;;;4.50;2.65;;;-2.10;99.90;;;;;;4966416;28;20499;-79
2020/12/27 02:58:09;;;;;;;5.40;2.28;;;-2.10;99.90;;;;;;4972823;28;20501;-78
2020/12/27 03:00:36;;;;;;;4.57;2.22;;;-2.10;99.90;;;;;;4940146;28;20441;-78
2020/12/27 03:03:28;;;;;;;4.97;2.72;;;-2.10;99.90;;;;;;4956613;28;20039;-78
2020/12/27 03:06:03;;;;;;;5.20;2.33;;;-2.10;99.90;;;;;;4946598;28;20031;-78
2020/12/27 03:08:29;;;;;;;4.65;2.58;;;-2.10;99.90;;;;;;4970358;28;20042;-79
2020/12/27 03:11:14;;;;;;;4.25;2.00;;;-2.20;99.90;;;;;;4952556;29;20078;-79
2020/12/27 03:13:41;;;;;;;4.65;2.40;;;-2.20;99.90;;;;;;4952169;28;20027;-79
2020/12/27 03:16:07;;;;;;;6.13;2.70;;;-2.20;99.90;;;;;;4966814;28;20050;-79
2020/12/27 03:19:08;;;;;;;3.97;2.38;;;-2.10;99.90;;;;;;4960285;28;20035;-78
2020/12/27 03:21:44;;;;;;;6.65;2.45;;;-2.10;99.90;;;;;;4923873;28;20050;-79
2020/12/27 03:24:32;;;;;;;6.35;2.55;;;-2.20;99.90;;;;;;4953231;28;20039;-79
2020/12/27 03:26:58;;;;;;;3.90;2.25;;;-2.20;99.90;;;;;;4966010;28;20034;-76
2020/12/27 03:29:24;;;;;;;5.80;2.15;;;-2.20;99.90;;;;;;4951549;28;20062;-76
2020/12/27 03:31:50;;;;;;;3.78;2.70;;;-2.20;99.90;;;;;;4951895;29;20127;-76
2020/12/27 03:34:20;;;;;;;7.32;3.10;;;-2.20;99.90;;;;;;4955699;28;20030;-76
2020/12/27 03:36:47;;;;;;;4.13;2.38;;;-2.20;99.90;;;;;;4969915;28;20090;-77
2020/12/27 03:39:32;;;;;;;5.85;2.22;;;-2.20;99.90;;;;;;4953681;28;20494;-76
2020/12/27 03:42:24;;;;;;;3.03;2.08;;;-2.30;99.90;;;;;;4956443;28;20129;-77
2020/12/27 03:44:58;;;;;;;3.55;2.13;;;-2.30;99.90;;;;;;4952254;28;20034;-76
2020/12/27 03:47:42;;;;;;;3.50;2.22;;;-2.30;99.90;;;;;;4967935;28;20733;-77
2020/12/27 03:50:13;;;;;;;7.95;2.15;;;-2.30;99.90;;;;;;4970487;28;20058;-76
2020/12/27 03:52:48;;;;;;;4.25;2.40;;;-2.30;99.90;;;;;;4955907;28;20509;-77
2020/12/27 03:55:19;;;;;;;4.40;2.28;;;-2.30;99.90;;;;;;4961579;28;20030;-77
2020/12/27 03:57:54;;;;;;;5.45;2.25;;;-2.30;99.90;;;;;;4970623;28;20034;-76
2020/12/27 04:00:45;;;;;;;3.53;1.63;;;-2.30;99.90;;;;;;4970574;28;20039;-76
2020/12/27 04:03:17;;;;;;;3.97;1.85;;;-2.30;99.90;;;;;;4951672;28;20039;-76
2020/12/27 04:05:45;;;;;;;4.43;2.20;;;-2.40;99.90;;;;;;4954041;28;20385;-76
2020/12/27 04:08:11;;;;;;;6.25;2.35;;;-2.40;99.90;;;;;;4963300;28;20482;-77
2020/12/27 04:10:41;;;;;;;4.72;2.33;;;-2.40;99.90;;;;;;4952280;28;20051;-76
2020/12/27 04:13:07;;;;;;;6.13;2.13;;;-2.40;99.90;;;;;;4938636;28;20489;-76
2020/12/27 04:15:33;;;;;;;3.75;2.00;;;-2.40;99.90;;;;;;4966486;28;20477;-76
2020/12/27 04:18:07;;;;;;;4.25;2.15;;;-2.40;99.90;;;;;;4967949;28;20444;-76
2020/12/27 04:20:53;;;;;;;3.75;1.98;;;-2.40;99.90;;;;;;4965442;28;20038;-77
2020/12/27 04:23:18;;;;;;;5.05;2.28;;;-2.40;99.90;;;;;;4946059;28;20035;-76
2020/12/27 04:25:44;;;;;;;3.85;2.22;;;-2.40;99.90;;;;;;4962087;28;20089;-76
2020/12/27 04:28:10;;;;;;;4.63;2.38;;;-2.40;99.90;;;;;;4938311;28;20042;-77
2020/12/27 04:30:36;;;;;;;5.38;2.70;;;-2.40;99.90;;;;;;4950994;28;20032;-76
2020/12/27 04:33:20;;;;;;;7.03;2.70;;;-2.40;99.90;;;;;;4940901;28;20035;-77
2020/12/27 04:36:07;;;;;;;4.00;2.20;;;-2.50;99.90;;;;;;4966501;28;20338;-77
2020/12/27 04:38:33;;;;;;;3.13;1.85;;;-2.50;99.90;;;;;;4959316;28;20039;-77
2020/12/27 04:41:03;;;;;;;4.57;2.10;;;-2.50;99.90;;;;;;4934989;29;20051;-76
2020/12/27 04:43:29;;;;;;;5.97;2.35;;;-2.50;99.90;;;;;;4951071;28;20035;-76
2020/12/27 04:45:59;;;;;;;5.97;2.25;;;-2.40;99.90;;;;;;4940718;28;20031;-76
2020/12/27 04:48:31;;;;;;;7.13;2.50;;;-2.40;99.90;;;;;;4969773;28;20117;-76
2020/12/27 04:51:17;;;;;;;6.72;2.70;;;-2.40;99.90;;;;;;4937864;29;20082;-76
2020/12/27 04:53:50;;;;;;;5.90;2.42;;;-2.40;99.90;;;;;;4954434;28;20123;-77
2020/12/27 04:56:26;;;;;;;3.92;2.25;;;-2.50;99.90;;;;;;4970435;28;20035;-76
2020/12/27 04:59:10;;;;;;;2.45;1.60;;;-2.50;99.90;;;;;;4958065;28;20516;-76
2020/12/27 05:01:39;;;;;;;4.03;2.17;;;-2.50;99.90;;;;;;4939215;28;20122;-76
2020/12/27 05:04:10;;;;;;;3.30;1.92;;;-2.50;99.90;;;;;;4939283;28;20090;-76
2020/12/27 05:06:53;;;;;;;5.82;2.50;;;-2.50;99.90;;;;;;4962655;28;20028;-76
2020/12/27 05:09:30;;;;;;;2.67;1.95;;;-2.50;99.90;;;;;;4954827;28;20075;-76
2020/12/27 05:11:56;;;;;;;4.75;2.05;;;-2.60;99.90;;;;;;4954623;28;20401;-76
2020/12/27 05:14:27;;;;;;;3.38;1.83;;;-2.50;99.90;;;;;;4971236;28;20031;-76
2020/12/27 05:16:57;;;;;;;3.67;2.55;;;-2.50;99.90;;;;;;4965301;28;20027;-76
2020/12/27 05:19:32;;;;;;;3.92;2.08;;;-2.50;99.90;;;;;;4964310;28;20105;-77
2020/12/27 05:22:08;;;;;;;3.88;1.88;;;-2.60;99.90;;;;;;4971501;28;20038;-76
2020/12/27 05:24:53;;;;;;;7.20;2.60;;;-2.60;99.90;;;;;;4969971;28;20031;-76
2020/12/27 05:27:44;;;;;;;6.00;2.35;;;-2.70;99.90;;;;;;4960512;28;20507;-77
2020/12/27 05:30:29;;;;;;;4.77;2.33;;;-2.60;99.90;;;;;;4967524;28;20101;-76
2020/12/27 05:33:21;;;;;;;5.97;2.30;;;-2.70;99.90;;;;;;4951054;28;20042;-76
2020/12/27 05:36:05;;;;;;;5.82;3.05;;;-2.70;99.90;;;;;;4968413;28;20082;-76
2020/12/27 05:38:38;;;;;;;5.15;2.60;;;-2.70;99.90;;;;;;4963087;28;20569;-77
2020/12/27 05:41:27;;;;;;;6.20;2.65;;;-2.70;99.90;;;;;;4954493;29;20118;-76
2020/12/27 05:44:04;;;;;;;7.45;2.55;;;-2.70;99.90;;;;;;4954050;28;20039;-77
2020/12/27 05:46:31;;;;;;;4.70;2.22;;;-2.70;99.90;;;;;;4938800;28;20123;-76
2020/12/27 05:48:58;;;;;;;4.22;2.80;;;-2.70;99.90;;;;;;4953159;28;20031;-76
2020/12/27 05:51:24;;;;;;;7.82;2.97;;;-2.70;99.90;;;;;;4937852;29;20126;-76
2020/12/27 05:53:52;;;;;;;6.13;2.35;;;-2.70;99.90;;;;;;4938576;28;20680;-77
2020/12/27 05:56:21;;;;;;;3.70;2.15;;;-2.70;99.90;;;;;;4970912;28;20089;-76
2020/12/27 05:58:56;;;;;;;4.93;2.50;;;-2.70;99.90;;;;;;4956979;28;20054;-76
2020/12/27 06:01:27;;;;;;;4.17;3.00;;;-2.80;99.90;;;;;;4965918;28;20134;-76
2020/12/27 06:04:03;;;;;;;5.05;2.67;;;-2.70;99.90;;;;;;4952830;28;20022;-76
2020/12/27 06:07:00;;;;;;;3.60;2.30;;;-2.70;99.90;;;;;;4954799;28;20122;-76
2020/12/27 06:09:42;;;;;;;3.03;2.08;;;-2.70;99.90;;;;;;4970419;28;20027;-76
2020/12/27 06:12:13;;;;;;;4.20;2.90;;;-2.70;99.90;;;;;;4972129;28;20023;-76
2020/12/27 06:14:43;;;;;;;3.63;2.30;;;-2.70;99.90;;;;;;4955495;28;20047;-76
2020/12/27 06:17:45;;;;;;;4.78;2.35;;;-2.70;99.90;;;;;;4973274;28;20035;-76
2020/12/27 06:20:43;;;;;;;5.30;3.08;;;-2.60;99.90;;;;;;4953256;29;20650;-77
2020/12/27 06:25:42;;;;;;;3.67;1.90;;;-2.60;99.90;;;;;;4947072;28;20114;-75
2020/12/27 06:28:10;;;;;;;5.30;3.17;;;-2.50;99.90;;;;;;4939681;29;20055;-74
2020/12/27 06:30:42;;;;;;;6.03;3.05;;;-2.50;99.90;;;;;;4947759;29;20039;-74
2020/12/27 06:33:41;;;;;;;7.80;2.72;;;-2.50;99.90;;;;;;4950910;28;20039;-75
2020/12/27 06:36:31;;;;;;;6.85;2.58;;;-2.60;99.90;;;;;;4939467;29;20487;-75
2020/12/27 06:38:57;;;;;;;3.53;2.47;;;-2.60;99.90;;;;;;4945475;29;20394;-74
2020/12/27 06:41:22;;;;;;;5.10;2.90;;;-2.50;99.90;;;;;;4943582;29;20043;-75
2020/12/27 06:44:38;;;;;;;5.07;2.83;;;-2.60;99.90;;;;;;4938260;28;20044;-75
2020/12/27 06:47:04;;;;;;;5.28;3.08;;;-2.60;99.90;;;;;;4945988;29;20027;-74
2020/12/27 06:49:41;;;;;;;7.53;3.10;;;-2.60;99.90;;;;;;4950301;29;20429;-75
2020/12/27 06:52:25;;;;;;;6.65;2.58;;;-2.60;99.90;;;;;;4952059;28;20031;-74
2020/12/27 06:55:09;;;;;;;7.22;2.88;;;-2.60;99.90;;;;;;4950679;28;20097;-74
2020/12/27 06:57:48;;;;;;;3.95;1.95;;;-2.60;99.90;;;;;;4947327;28;20035;-75
2020/12/27 07:00:37;;;;;;;3.33;2.42;;;-2.60;99.90;;;;;;4952766;28;20126;-74
2020/12/27 07:03:21;;;;;;;4.72;2.28;;;-2.60;99.90;;;;;;4939910;29;20036;-75
2020/12/27 07:05:48;;;;;;;2.55;2.03;;;-2.60;99.90;;;;;;4941800;29;20687;-75
2020/12/27 07:08:34;;;;;;;4.10;2.08;;;-2.60;99.90;;;;;;4942475;29;20032;-75
2020/12/27 07:11:01;;;;;;;4.90;2.50;;;-2.60;99.90;;;;;;4950618;29;20119;-74
2020/12/27 07:13:27;;;;;;;1.88;1.52;;;-2.60;99.90;;;;;;4950847;28;20035;-74
2020/12/27 07:15:54;;;;;;;3.72;2.35;;;-2.60;99.90;;;;;;4950655;29;20031;-75
2020/12/27 07:18:21;;;;;;;2.95;1.95;;;-2.60;99.90;;;;;;4950992;28;20126;-74
2020/12/27 07:20:51;;;;;;;4.43;2.40;;;-2.60;99.90;;;;;;4948716;29;20035;-75
2020/12/27 07:23:21;;;;;;;3.08;2.05;;;-2.60;99.90;;;;;;4948469;29;20490;-75
2020/12/27 07:25:52;;;;;;;4.00;2.03;;;-2.50;99.90;;;;;;4938465;28;20074;-74
2020/12/27 07:28:18;;;;;;;6.63;2.80;;;-2.50;99.90;;;;;;4948526;29;20034;-73
2020/12/27 07:30:45;;;;;;;3.03;2.00;;;-2.50;99.90;;;;;;4947696;29;20038;-74
2020/12/27 07:33:14;;;;;;;3.10;1.48;;;-2.50;99.90;;;;;;4949241;29;20433;-74
2020/12/27 07:35:39;;;;;;;3.17;1.95;;;-2.50;99.90;;;;;;4947979;28;20028;-75
2020/12/27 07:38:07;;;;;;;2.35;1.70;;;-2.50;99.90;;;;;;4950329;28;20027;-74
2020/12/27 07:40:35;;;;;;;4.57;2.67;;;-2.50;99.90;;;;;;4951075;29;20070;-75
2020/12/27 07:43:02;;;;;;;6.55;2.20;;;-2.50;99.90;;;;;;4952170;29;20042;-74
2020/12/27 07:45:28;;;;;;;3.35;2.00;;;-2.50;99.90;;;;;;4950100;28;20039;-75
2020/12/27 07:47:54;;;;;;;6.55;2.22;;;-2.50;99.90;;;;;;4944295;28;20099;-74
2020/12/27 07:50:20;;;;;;;5.10;2.25;;;-2.50;99.90;;;;;;4943035;29;20403;-75
2020/12/27 07:52:59;;;;;;;3.53;2.25;;;-2.50;99.90;;;;;;4952051;29;20031;-74
2020/12/27 07:55:37;;;;;;;4.45;2.20;;;-2.50;99.90;;;;;;4947954;28;20109;-74
2020/12/27 07:58:07;;;;;;;5.38;2.28;;;-2.50;99.90;;;;;;4937292;29;20091;-75
2020/12/27 08:00:35;;;;;;;4.35;2.20;;;-2.40;99.90;;;;;;4942974;29;20101;-74
2020/12/27 08:03:05;;;;;;;2.55;1.55;;;-2.40;99.90;;;;;;4944067;29;20035;-75
2020/12/27 08:05:31;;;;;;;3.55;2.28;;;-2.40;99.90;;;;;;4943265;29;20027;-75
2020/12/27 08:08:23;;;;;;;2.80;1.77;;;-2.40;99.90;;;;;;4944547;29;20489;-74
2020/12/27 08:10:50;;;;;;;3.08;2.13;;;-2.50;99.90;;;;;;4938125;29;20090;-74
2020/12/27 08:13:16;;;;;;;5.00;2.05;;;-2.50;99.90;;;;;;4941612;28;20739;-74
2020/12/27 08:15:42;;;;;;;3.28;1.77;;;-2.50;99.90;;;;;;4941692;28;20070;-75
2020/12/27 08:18:10;;;;;;;4.47;2.17;;;-2.50;99.90;;;;;;4947125;28;20626;-75
2020/12/27 08:20:49;;;;;;;3.65;2.15;;;-2.50;99.90;;;;;;4949829;28;20031;-75
2020/12/27 08:23:16;;;;;;;5.22;2.65;;;-2.40;99.90;;;;;;4946429;28;20086;-72
2020/12/27 08:25:42;;;;;;;3.88;2.40;;;-2.30;99.90;;;;;;4947622;29;20035;-74
2020/12/27 08:28:10;;;;;;;3.78;2.00;;;-2.40;99.90;;;;;;4944857;29;20095;-75
2020/12/27 08:30:36;;;;;;;5.63;2.55;;;-2.40;99.90;;;;;;4944083;29;20382;-74
2020/12/27 08:33:03;;;;;;;3.38;2.10;;;-2.40;99.90;;;;;;4957814;28;20038;-75
2020/12/27 08:35:28;;;;;;;9.07;2.78;;;-2.40;99.90;;;;;;4954728;28;20547;-74
2020/12/27 08:38:13;;;;;;;3.40;2.28;;;-2.50;99.90;;;;;;4953987;28;20127;-74
2020/12/27 08:40:43;;;;;;;4.30;2.55;;;-2.50;99.90;;;;;;4951788;29;20516;-75
2020/12/27 08:43:18;;;;;;;4.43;2.45;;;-2.40;99.90;;;;;;4953559;28;20493;-74
2020/12/27 08:45:56;;;;;;;2.78;1.75;;;-2.40;99.90;;;;;;4952386;28;20401;-73
2020/12/27 08:48:34;;;;;;;5.97;2.53;;;-2.40;99.90;;;;;;4949932;28;20035;-75
2020/12/27 08:51:02;;;;;;;5.72;2.78;;;-2.40;99.90;;;;;;4949070;28;20875;-74
2020/12/27 08:53:31;;;;;;;5.82;2.97;;;-2.40;99.90;;;;;;4955476;28;20549;-74
2020/12/27 08:56:00;;;;;;;5.70;2.97;;;-2.40;99.90;;;;;;4948818;29;20027;-74
2020/12/27 08:58:27;;;;;;;4.07;2.47;;;-2.30;99.90;;;;;;4950462;28;20125;-74
2020/12/27 09:00:52;;;;;;;2.35;1.80;;;-2.30;99.90;;;;;;4952114;29;20086;-74
2020/12/27 09:03:19;;;;;;;4.30;2.28;;;-2.30;99.90;;;;;;4951871;28;20042;-74
2020/12/27 09:05:45;;;;;;;2.85;1.73;;;-2.30;99.90;;;;;;4951731;29;20040;-74
2020/12/27 09:08:17;;;;;;;5.45;2.28;;;-2.30;99.90;;;;;;4947306;28;20090;-74
2020/12/27 09:10:43;;;;;;;4.85;2.42;;;-2.40;99.90;;;;;;4948777;29;20380;-74
2020/12/27 09:13:13;;;;;;;4.68;2.33;;;-2.40;99.90;;;;;;4951039;28;20074;-73
2020/12/27 09:15:47;;;;;;;4.10;2.20;;;-2.30;99.90;;;;;;4950460;29;20031;-74
2020/12/27 09:18:14;;;;;;;4.80;2.30;;;-2.30;99.90;;;;;;4946296;28;20027;-74
2020/12/27 09:20:41;;;;;;;4.00;2.40;;;-2.30;99.90;;;;;;4937081;29;20450;-73
2020/12/27 09:23:20;;;;;;;4.03;2.15;;;-2.20;99.90;;;;;;4952533;29;20081;-74
2020/12/27 09:26:06;;;;;;;5.15;2.70;;;-2.30;99.90;;;;;;4948526;28;20509;-74
2020/12/27 09:28:34;;;;;;;4.47;2.33;;;-2.20;99.90;;;;;;4948130;28;20253;-74
2020/12/27 09:31:03;;;;;;;4.78;2.15;;;-2.20;99.90;;;;;;4949641;28;20035;-74
2020/12/27 09:33:30;;;;;;;5.80;2.60;;;-2.20;99.90;;;;;;4947933;28;20082;-74
2020/12/27 09:35:59;;;;;;;5.47;2.80;;;-2.20;99.90;;;;;;4947742;28;20031;-74
2020/12/27 09:38:32;;;;;;;10.15;2.25;;;-2.10;99.90;;;;;;4949607;28;20049;-74
2020/12/27 09:41:11;;;;;;;3.22;2.17;;;-2.10;99.90;;;;;;4948632;28;20454;-74
2020/12/27 09:43:55;;;;;;;2.92;1.98;;;-2.10;99.90;;;;;;4954503;28;20035;-74
2020/12/27 09:46:42;;;;;;;2.33;1.77;;;-2.00;99.90;;;;;;4945965;29;20123;-74
2020/12/27 09:49:20;;;;;;;2.70;1.67;;;-2.00;99.90;;;;;;4952144;29;20126;-75
2020/12/27 09:52:07;;;;;;;2.65;1.60;;;-2.00;99.90;;;;;;4954693;28;20466;-75
2020/12/27 09:54:34;;;;;;;4.57;2.22;;;-2.00;99.90;;;;;;4951779;28;20039;-74
2020/12/27 09:57:13;;;;;;;4.53;2.28;;;-2.00;99.90;;;;;;4942908;29;20121;-74
2020/12/27 09:59:39;;;;;;;2.95;1.75;;;-2.00;99.90;;;;;;4943354;28;20026;-74
2020/12/27 10:02:05;;;;;;;3.45;2.15;;;-2.00;99.90;;;;;;4938120;29;20039;-73
2020/12/27 10:04:31;;;;;;;3.90;2.33;;;-1.90;99.90;;;;;;4933963;29;20039;-74
2020/12/27 10:06:57;;;;;;;4.10;1.88;;;-1.90;99.90;;;;;;4945167;29;20028;-75
2020/12/27 10:09:23;;;;;;;2.90;2.05;;;-1.90;99.90;;;;;;4941504;28;20489;-74
2020/12/27 10:11:49;;;;;;;4.13;2.10;;;-1.90;99.90;;;;;;4934203;29;20398;-74
2020/12/27 10:14:15;;;;;;;6.43;2.38;;;-1.80;99.90;;;;;;4937173;28;20043;-74
2020/12/27 10:16:40;;;;;;;3.33;2.20;;;-1.70;99.90;;;;;;4945167;29;20034;-73
2020/12/27 10:19:06;;;;;;;5.03;2.25;;;-1.70;99.90;;;;;;4948704;29;20689;-75
2020/12/27 10:21:32;;;;;;;3.78;2.10;;;-1.70;99.90;;;;;;4949844;29;20027;-74
2020/12/27 10:23:58;;;;;;;3.50;2.08;;;-1.60;99.90;;;;;;4946592;29;20038;-75
2020/12/27 10:26:23;;;;;;;3.22;2.22;;;-1.60;99.90;;;;;;4940154;29;20073;-74
2020/12/27 10:28:49;;;;;;;2.78;1.73;;;-1.50;99.90;;;;;;4933413;29;20032;-75
2020/12/27 10:31:15;;;;;;;4.22;1.90;;;-1.40;99.90;;;;;;4944732;29;20062;-76
2020/12/27 10:33:41;;;;;;;2.67;2.00;;;-1.40;99.90;;;;;;4942182;28;20043;-73
2020/12/27 10:36:07;;;;;;;2.53;1.90;;;-1.40;99.90;;;;;;4947192;29;20034;-74
2020/12/27 10:38:32;;;;;;;4.90;2.85;;;-1.30;99.90;;;;;;4945627;29;20083;-74
2020/12/27 10:41:00;;;;;;;3.08;2.00;;;-1.20;99.90;;;;;;4925490;29;20035;-74
2020/12/27 10:43:26;;;;;;;4.95;2.30;;;-1.20;99.90;;;;;;4947333;29;20039;-75
2020/12/27 10:46:03;;;;;;;3.78;2.40;;;-1.10;99.90;;;;;;4943331;29;20055;-75
2020/12/27 10:48:30;;;;;;;5.70;2.17;;;-1.10;99.90;;;;;;4943467;29;20546;-73
2020/12/27 10:50:55;;;;;;;2.85;1.85;;;-1.00;99.90;;;;;;4945447;29;20183;-73
2020/12/27 10:53:21;;;;;;;2.95;2.08;;;-1.00;99.90;;;;;;4942793;28;20118;-74
2020/12/27 10:55:48;;;;;;;5.35;2.22;;;-1.00;99.90;;;;;;4945600;28;20070;-73
2020/12/27 10:58:14;;;;;;;1.70;1.60;;;-1.00;99.90;;;;;;4946635;28;20382;-73
2020/12/27 11:00:40;;;;;;;5.18;1.63;;;-1.00;99.90;;;;;;4941822;29;20508;-73
2020/12/27 11:03:06;;;;;;;2.88;1.88;;;-1.10;99.90;;;;;;4938345;29;20549;-73
2020/12/27 11:05:31;;;;;;;3.20;1.90;;;-1.00;99.90;;;;;;4938528;29;20035;-73
2020/12/27 11:07:57;;;;;;;4.20;2.00;;;-0.90;99.90;;;;;;4925721;29;20031;-72
2020/12/27 11:10:23;;;;;;;5.45;2.33;;;-1.00;99.90;;;;;;4941005;28;20040;-73
2020/12/27 11:12:48;;;;;;;12.50;5.40;;;-0.90;99.90;;;;;;4941302;29;20020;-73
2020/12/27 11:15:16;;;;;;;5.60;2.50;;;-0.90;99.90;;;;;;4941871;28;20122;-73
2020/12/27 11:17:42;;;;;;;7.13;3.17;;;-0.90;99.90;;;;;;4944601;29;20043;-75
2020/12/27 11:20:09;;;;;;;3.05;1.55;;;-0.90;99.90;;;;;;4940100;29;20804;-76
2020/12/27 11:22:38;;;;;;;2.35;1.75;;;-1.00;99.90;;;;;;4938417;29;20035;-76
2020/12/27 11:25:04;;;;;;;6.25;2.95;;;-1.10;99.90;;;;;;4941539;28;20032;-76
2020/12/27 11:27:30;;;;;;;6.15;2.53;;;-1.10;99.90;;;;;;4936866;28;20082;-76
2020/12/27 11:29:57;;;;;;;5.38;2.53;;;-1.10;99.90;;;;;;4942665;28;20035;-76
2020/12/27 11:32:23;;;;;;;6.25;3.42;;;-1.10;99.90;;;;;;4943171;28;20032;-74
2020/12/27 11:34:49;;;;;;;3.17;2.00;;;-1.00;99.90;;;;;;4936628;28;20031;-75
2020/12/27 11:37:14;;;;;;;4.88;2.30;;;-1.00;99.90;;;;;;4941237;28;20027;-76
2020/12/27 11:39:41;;;;;;;3.65;2.60;;;-1.10;99.90;;;;;;4940609;29;20078;-76
2020/12/27 11:42:06;;;;;;;4.60;2.05;;;-1.10;99.90;;;;;;4943207;29;20446;-77
2020/12/27 11:44:32;;;;;;;2.90;2.03;;;-1.10;99.90;;;;;;4939629;28;20043;-76
2020/12/27 11:46:58;;;;;;;2.35;1.70;;;-1.10;99.90;;;;;;4943972;28;20082;-76
2020/12/27 11:49:23;;;;;;;2.78;1.73;;;-1.10;99.90;;;;;;4938804;28;20435;-75
2020/12/27 11:51:49;;;;;;;5.20;2.25;;;-1.00;99.90;;;;;;4944933;28;20031;-76
2020/12/27 11:54:15;;;;;;;2.45;1.90;;;-1.10;99.90;;;;;;4930143;29;20043;-76
2020/12/27 11:56:43;;;;;;;5.45;2.50;;;-1.00;99.90;;;;;;4948986;28;20029;-75
2020/12/27 11:59:11;;;;;;;5.32;2.75;;;-0.90;99.90;;;;;;4946503;29;20027;-76
2020/12/27 12:01:37;;;;;;;5.60;2.17;;;-0.80;99.90;;;;;;4945648;28;20067;-76
2020/12/27 12:04:02;;;;;;;3.90;2.30;;;-0.80;99.90;;;;;;4940140;29;20537;-75
2020/12/27 12:06:29;;;;;;;2.13;1.90;;;-0.80;99.90;;;;;;4942971;28;20130;-76
2020/12/27 12:08:55;;;;;;;2.80;2.28;;;-0.80;99.90;;;;;;4937479;28;20430;-75
2020/12/27 12:11:21;;;;;;;3.33;2.10;;;-0.80;99.90;;;;;;4935808;29;20564;-75
2020/12/27 12:13:47;;;;;;;3.08;2.00;;;-0.80;99.90;;;;;;4939034;28;20119;-75
2020/12/27 12:16:22;;;;;;;4.22;2.08;;;-0.90;99.90;;;;;;4946813;28;20034;-75
2020/12/27 12:18:48;;;;;;;4.03;2.08;;;-0.80;99.90;;;;;;4944517;28;20031;-75
2020/12/27 12:21:14;;;;;;;2.50;1.88;;;-0.80;99.90;;;;;;4937975;28;20060;-76
2020/12/27 12:23:40;;;;;;;2.72;2.05;;;-0.80;99.90;;;;;;4925914;29;20112;-76
2020/12/27 12:26:06;;;;;;;3.83;2.10;;;-0.70;99.90;;;;;;4944872;29;20466;-76
2020/12/27 12:28:32;;;;;;;2.70;2.17;;;-0.70;99.90;;;;;;4944908;28;20075;-76
2020/12/27 12:30:57;;;;;;;4.70;1.95;;;-0.70;99.90;;;;;;4943099;28;20031;-75
2020/12/27 12:33:23;;;;;;;2.08;1.75;;;-0.70;99.90;;;;;;4943275;28;20717;-75
2020/12/27 12:35:49;;;;;;;3.92;2.20;;;-0.60;99.90;;;;;;4944193;28;20398;-76
2020/12/27 12:38:15;;;;;;;2.28;1.90;;;-0.60;99.90;;;;;;4942986;29;20561;-76
2020/12/27 12:40:43;;;;;;;3.13;1.88;;;-0.60;99.90;;;;;;4946163;29;20031;-76
2020/12/27 12:43:08;;;;;;;4.03;2.45;;;-0.50;99.90;;;;;;4942771;28;20434;-76
2020/12/27 12:45:34;;;;;;;4.32;2.47;;;-0.50;99.90;;;;;;4947139;28;20035;-76
2020/12/27 12:48:00;;;;;;;5.05;2.38;;;-0.40;99.90;;;;;;4941551;28;20567;-75
2020/12/27 12:50:26;;;;;;;3.42;1.85;;;-0.40;99.90;;;;;;4944982;28;20035;-75
2020/12/27 12:52:52;;;;;;;2.70;1.73;;;-0.40;99.90;;;;;;4924865;29;20047;-75
2020/12/27 12:55:18;;;;;;;6.00;2.05;;;-0.40;99.90;;;;;;4940820;28;20031;-75
2020/12/27 12:57:45;;;;;;;3.47;2.00;;;-0.40;99.90;;;;;;4945339;28;20036;-75
2020/12/27 13:00:11;;;;;;;7.78;2.05;;;-0.50;99.90;;;;;;4941011;29;20028;-75
2020/12/27 13:02:37;;;;;;;2.42;1.58;;;-0.50;99.90;;;;;;4941449;28;20101;-76
2020/12/27 13:05:03;;;;;;;2.92;1.83;;;-0.50;99.90;;;;;;4951712;28;20043;-75
2020/12/27 13:07:28;;;;;;;4.05;1.90;;;-0.50;99.90;;;;;;4943473;28;20034;-76
2020/12/27 13:09:54;;;;;;;4.38;2.00;;;-0.50;99.90;;;;;;4942133;28;20027;-75